Sioux Arrow — WAG6168 — position and weather

sailwx.info

Track history (hours):
 
Tides and Currents Weather Stations Pressure Air Temp Water Temp Dewpoint Dewpoint Depression Visibility Wind Speed Wind Dir Waves Ship Positions

Sioux Arrow

More information available from US FCC via Universal Licensing System and Coast Guard Vessel Documentation Center.

Last reported at 2014-Jul-24 07:13 UTC. Time now 2014-Jul-24 10:41 UTC.
Position N 48°07' W 123°26'.

Type: Port tender. MMSI: 366973370.

Date/timePositionNaut miles runAvg speedWind from/ knotsBaromVisibWave heightAir tempDewpointWater temp
2014-Jul-24 07:13N 48°07' W 123°26'0 0.0
2014-Jul-24 06:33N 48°07' W 123°26'0 0.0
2014-Jul-24 05:33N 48°07' W 123°26'0 0.0
2014-Jul-24 04:33N 48°07' W 123°26'0 0.0
2014-Jul-24 03:29N 48°07' W 123°26'0 0.0
2014-Jul-24 02:14N 48°07' W 123°26'0 0.0
2014-Jul-24 01:25N 48°07' W 123°26'0 0.0
2014-Jul-24 00:22N 48°07' W 123°26'0 0.0
2014-Jul-23 23:22N 48°07' W 123°26'0 0.0
2014-Jul-23 22:33N 48°07' W 123°26'0 0.0
2014-Jul-23 21:28N 48°07' W 123°26'0 0.7
2014-Jul-23 20:57N 48°08' W 123°26'0 0.9
2014-Jul-23 20:33N 48°07' W 123°26'0 0.0
2014-Jul-23 20:12N 48°07' W 123°26'1 2.3
2014-Jul-23 19:33N 48°08' W 123°24'1512.0
2014-Jul-23 18:17N 48°17' W 123°06'912.3
2014-Jul-23 17:33N 48°22' W 122°54'1312.9
2014-Jul-23 16:33N 48°31' W 122°40'3 0.4
2014-Jul-23 09:34N 48°31' W 122°36'0 0.0
2014-Jul-23 08:34N 48°31' W 122°36'0 0.0
2014-Jul-23 07:34N 48°31' W 122°36'0 0.0
2014-Jul-23 06:33N 48°31' W 122°36'0 0.0
2014-Jul-23 05:34N 48°31' W 122°36'0 0.0
2014-Jul-23 04:33N 48°31' W 122°36'0 0.0
2014-Jul-23 03:33N 48°31' W 122°36'0 0.0
2014-Jul-23 02:34N 48°31' W 122°36'0 0.0
2014-Jul-23 01:34N 48°31' W 122°36'0 0.0
2014-Jul-23 00:34N 48°31' W 122°36'0 0.0
2014-Jul-22 23:34N 48°31' W 122°36'2 2.0
2014-Jul-22 22:33N 48°32' W 122°34'0 0.3
2014-Jul-22 21:33N 48°32' W 122°34'2 2.2
2014-Jul-22 20:33N 48°31' W 122°36'0 0.0
2014-Jul-22 19:33N 48°31' W 122°36'0 0.0
2014-Jul-22 18:33N 48°31' W 122°36'0 0.0
2014-Jul-22 17:33N 48°31' W 122°36'0 0.0
2014-Jul-22 16:33N 48°31' W 122°36'0 0.0
2014-Jul-22 15:33N 48°31' W 122°36'1 1.0
2014-Jul-22 14:33N 48°31' W 122°35'1 0.1
2014-Jul-22 05:06N 48°31' W 122°36'0 0.0
2014-Jul-22 04:33N 48°31' W 122°36'0 0.0
2014-Jul-22 03:33N 48°31' W 122°36'0 0.1
2014-Jul-22 02:33N 48°31' W 122°36'0 0.1
2014-Jul-22 01:33N 48°31' W 122°36'0 0.0
2014-Jul-22 00:33N 48°31' W 122°36'1 0.5
2014-Jul-21 23:34N 48°31' W 122°36'0 0.5
2014-Jul-21 22:33N 48°31' W 122°36'0 0.0
2014-Jul-21 21:33N 48°31' W 122°36'0 0.0
2014-Jul-21 20:33N 48°31' W 122°36'0 0.0
2014-Jul-21 20:18N 48°31' W 122°36'0 0.3
2014-Jul-21 19:33N 48°31' W 122°36'0 0.4
2014-Jul-21 18:33N 48°31' W 122°36'0 0.4
2014-Jul-21 17:33N 48°31' W 122°36'3 2.9
2014-Jul-21 16:33N 48°33' W 122°34'3 2.6
2014-Jul-21 15:33N 48°31' W 122°35'1 0.9
2014-Jul-21 14:33N 48°31' W 122°36'0 0.0
2014-Jul-21 13:33N 48°31' W 122°36'4 4.0
2014-Jul-21 12:33N 48°34' W 122°34'4 4.0
2014-Jul-21 11:33N 48°31' W 122°36'0 0.0
2014-Jul-21 06:34N 48°31' W 122°36'0 0.0
2014-Jul-21 05:33N 48°31' W 122°36'1 1.0
2014-Jul-21 04:33N 48°31' W 122°35'1 1.0
2014-Jul-21 03:33N 48°31' W 122°37'0 0.1
2014-Jul-21 02:33N 48°31' W 122°36'1 0.3
2014-Jul-20 21:33N 48°32' W 122°35'5 4.8
2014-Jul-20 20:33N 48°36' W 122°33'6 6.2
2014-Jul-20 19:33N 48°31' W 122°36'0 0.0
2014-Jul-19 07:34N 48°31' W 122°36'1 0.1
2014-Jul-18 23:33N 48°31' W 122°35'1 1.4
2014-Jul-18 22:32N 48°32' W 122°34'2 2.3
2014-Jul-18 21:33N 48°31' W 122°36'0 0.0
2014-Jul-18 20:33N 48°31' W 122°36'0 0.0
2014-Jul-18 19:33N 48°31' W 122°36'0 0.0
2014-Jul-18 18:33N 48°31' W 122°36'0 0.0
2014-Jul-18 17:33N 48°31' W 122°36'1 1.1
2014-Jul-18 16:33N 48°31' W 122°35'1 1.1
2014-Jul-18 15:33N 48°31' W 122°36'1 0.1
2014-Jul-18 05:33N 48°31' W 122°34'1 0.4
2014-Jul-18 02:05N 48°31' W 122°36'2 4.2
2014-Jul-18 01:34N 48°32' W 122°34'2 1.7
2014-Jul-18 00:34N 48°34' W 122°34'4 3.7
2014-Jul-17 23:34N 48°31' W 122°36'5 5.2
2014-Jul-17 22:33N 48°35' W 122°33'5 5.2
2014-Jul-17 21:33N 48°31' W 122°36'0 0.1
2014-Jul-17 20:33N 48°31' W 122°37'0 0.1
2014-Jul-17 19:33N 48°31' W 122°36'4 4.1
2014-Jul-17 18:33N 48°34' W 122°34'4 4.1
2014-Jul-17 17:33N 48°31' W 122°36'2 1.6
2014-Jul-17 16:33N 48°31' W 122°34'2 1.6
2014-Jul-17 15:33N 48°31' W 122°37'5 0.5
2014-Jul-17 04:33N 48°35' W 122°34'5 4.9
2014-Jul-17 03:33N 48°31' W 122°36'0 0.0
2014-Jul-17 02:33N 48°31' W 122°36'0 0.0
2014-Jul-17 01:33N 48°31' W 122°36'0 0.0
2014-Jul-17 00:33N 48°31' W 122°36'5 4.9
2014-Jul-16 23:34N 48°35' W 122°34'1 1.3
2014-Jul-16 22:33N 48°36' W 122°32'6 5.8
2014-Jul-16 21:33N 48°31' W 122°36'0 0.0
2014-Jul-16 20:33N 48°31' W 122°36'3 3.4
2014-Jul-16 19:33N 48°34' W 122°34'3 3.4
2014-Jul-16 18:33N 48°31' W 122°36'1 1.2
2014-Jul-16 17:33N 48°31' W 122°35'0 0.1
2014-Jul-16 16:33N 48°31' W 122°35'1 1.1
2014-Jul-16 15:33N 48°31' W 122°36'0 0.0
2014-Jul-16 04:34N 48°31' W 122°36'3 2.8
2014-Jul-16 03:33N 48°33' W 122°34'3 2.8
2014-Jul-16 02:33N 48°31' W 122°37'0 0.0
2014-Jul-16 01:33N 48°31' W 122°36'0 0.0
2014-Jul-16 00:33N 48°31' W 122°36'0 0.0
2014-Jul-15 23:33N 48°31' W 122°36'0 0.3
2014-Jul-15 22:33N 48°31' W 122°36'0 0.3
2014-Jul-15 21:33N 48°31' W 122°36'0 0.0
2014-Jul-15 20:33N 48°31' W 122°36'0 0.0
2014-Jul-15 19:33N 48°31' W 122°36'0 0.1
2014-Jul-15 18:33N 48°31' W 122°37'5 5.1
2014-Jul-15 17:34N 48°35' W 122°33'5 5.1
2014-Jul-15 16:33N 48°31' W 122°37'0 0.0
2014-Jul-15 09:25N 48°31' W 122°36'6 6.8
2014-Jul-15 08:34N 48°36' W 122°32'6 5.9
2014-Jul-15 07:33N 48°31' W 122°36'0 0.0
2014-Jul-15 06:33N 48°31' W 122°36'0 0.0
2014-Jul-15 05:33N 48°31' W 122°36'0 0.0
2014-Jul-15 04:33N 48°31' W 122°36'0 0.0
2014-Jul-15 03:33N 48°31' W 122°36'0 0.2
2014-Jul-15 02:33N 48°31' W 122°36'0 0.3
2014-Jul-15 01:33N 48°31' W 122°37'0 0.0
2014-Jul-15 00:33N 48°31' W 122°36'0 0.4
2014-Jul-14 23:33N 48°31' W 122°36'0 0.4
2014-Jul-14 22:33N 48°31' W 122°36'0 0.1
2014-Jul-14 21:33N 48°31' W 122°36'0 0.0
2014-Jul-14 20:33N 48°31' W 122°36'0 0.3
2014-Jul-14 19:33N 48°31' W 122°36'0 0.3
2014-Jul-14 18:33N 48°31' W 122°36'0 0.0
2014-Jul-14 17:33N 48°31' W 122°36'0 0.0
2014-Jul-14 16:33N 48°31' W 122°36'0 0.1
2014-Jul-14 15:33N 48°31' W 122°36'0 0.2
2014-Jul-14 14:33N 48°31' W 122°36'0 0.1
2014-Jul-14 10:30N 48°31' W 122°36'3 2.8
2014-Jul-14 09:33N 48°33' W 122°34'  
Track history (hours):
 
Tides and Currents Weather Stations Pressure Air Temp Water Temp Dewpoint Dewpoint Depression Visibility Wind Speed Wind Dir Waves Ship Positions

Sioux Arrow

More information available from US FCC via Universal Licensing System and Coast Guard Vessel Documentation Center.

Last reported at 2014-Jul-24 07:13 UTC. Time now 2014-Jul-24 10:41 UTC.
Position N 48°07' W 123°26'.

Type: Port tender. MMSI: 366973370.

Date/timePositionNaut miles runAvg speedWind from/ knotsBaromVisibWave heightAir tempDewpointWater temp
2014-Jul-24 07:13N 48°07' W 123°26'0 0.0
2014-Jul-24 06:33N 48°07' W 123°26'0 0.0
2014-Jul-24 05:33N 48°07' W 123°26'0 0.0
2014-Jul-24 04:33N 48°07' W 123°26'0 0.0
2014-Jul-24 03:29N 48°07' W 123°26'0 0.0
2014-Jul-24 02:14N 48°07' W 123°26'0 0.0
2014-Jul-24 01:25N 48°07' W 123°26'0 0.0
2014-Jul-24 00:22N 48°07' W 123°26'0 0.0
2014-Jul-23 23:22N 48°07' W 123°26'0 0.0
2014-Jul-23 22:33N 48°07' W 123°26'0 0.0
2014-Jul-23 21:28N 48°07' W 123°26'0 0.7
2014-Jul-23 20:57N 48°08' W 123°26'0 0.9
2014-Jul-23 20:33N 48°07' W 123°26'0 0.0
2014-Jul-23 20:12N 48°07' W 123°26'1 2.3
2014-Jul-23 19:33N 48°08' W 123°24'1512.0
2014-Jul-23 18:17N 48°17' W 123°06'912.3
2014-Jul-23 17:33N 48°22' W 122°54'1312.9
2014-Jul-23 16:33N 48°31' W 122°40'3 0.4
2014-Jul-23 09:34N 48°31' W 122°36'0 0.0
2014-Jul-23 08:34N 48°31' W 122°36'0 0.0
2014-Jul-23 07:34N 48°31' W 122°36'0 0.0
2014-Jul-23 06:33N 48°31' W 122°36'0 0.0
2014-Jul-23 05:34N 48°31' W 122°36'0 0.0
2014-Jul-23 04:33N 48°31' W 122°36'0 0.0
2014-Jul-23 03:33N 48°31' W 122°36'0 0.0
2014-Jul-23 02:34N 48°31' W 122°36'0 0.0
2014-Jul-23 01:34N 48°31' W 122°36'0 0.0
2014-Jul-23 00:34N 48°31' W 122°36'0 0.0
2014-Jul-22 23:34N 48°31' W 122°36'2 2.0
2014-Jul-22 22:33N 48°32' W 122°34'0 0.3
2014-Jul-22 21:33N 48°32' W 122°34'2 2.2
2014-Jul-22 20:33N 48°31' W 122°36'0 0.0
2014-Jul-22 19:33N 48°31' W 122°36'0 0.0
2014-Jul-22 18:33N 48°31' W 122°36'0 0.0
2014-Jul-22 17:33N 48°31' W 122°36'0 0.0
2014-Jul-22 16:33N 48°31' W 122°36'0 0.0
2014-Jul-22 15:33N 48°31' W 122°36'1 1.0
2014-Jul-22 14:33N 48°31' W 122°35'1 0.1
2014-Jul-22 05:06N 48°31' W 122°36'0 0.0
2014-Jul-22 04:33N 48°31' W 122°36'0 0.0
2014-Jul-22 03:33N 48°31' W 122°36'0 0.1
2014-Jul-22 02:33N 48°31' W 122°36'0 0.1
2014-Jul-22 01:33N 48°31' W 122°36'0 0.0
2014-Jul-22 00:33N 48°31' W 122°36'1 0.5
2014-Jul-21 23:34N 48°31' W 122°36'0 0.5
2014-Jul-21 22:33N 48°31' W 122°36'0 0.0
2014-Jul-21 21:33N 48°31' W 122°36'0 0.0
2014-Jul-21 20:33N 48°31' W 122°36'0 0.0
2014-Jul-21 20:18N 48°31' W 122°36'0 0.3
2014-Jul-21 19:33N 48°31' W 122°36'0 0.4
2014-Jul-21 18:33N 48°31' W 122°36'0 0.4
2014-Jul-21 17:33N 48°31' W 122°36'3 2.9
2014-Jul-21 16:33N 48°33' W 122°34'3 2.6
2014-Jul-21 15:33N 48°31' W 122°35'1 0.9
2014-Jul-21 14:33N 48°31' W 122°36'0 0.0
2014-Jul-21 13:33N 48°31' W 122°36'4 4.0
2014-Jul-21 12:33N 48°34' W 122°34'4 4.0
2014-Jul-21 11:33N 48°31' W 122°36'0 0.0
2014-Jul-21 06:34N 48°31' W 122°36'0 0.0
2014-Jul-21 05:33N 48°31' W 122°36'1 1.0
2014-Jul-21 04:33N 48°31' W 122°35'1 1.0
2014-Jul-21 03:33N 48°31' W 122°37'0 0.1
2014-Jul-21 02:33N 48°31' W 122°36'1 0.3
2014-Jul-20 21:33N 48°32' W 122°35'5 4.8
2014-Jul-20 20:33N 48°36' W 122°33'6 6.2
2014-Jul-20 19:33N 48°31' W 122°36'0 0.0
2014-Jul-19 07:34N 48°31' W 122°36'1 0.1
2014-Jul-18 23:33N 48°31' W 122°35'1 1.4
2014-Jul-18 22:32N 48°32' W 122°34'2 2.3
2014-Jul-18 21:33N 48°31' W 122°36'0 0.0
2014-Jul-18 20:33N 48°31' W 122°36'0 0.0
2014-Jul-18 19:33N 48°31' W 122°36'0 0.0
2014-Jul-18 18:33N 48°31' W 122°36'0 0.0
2014-Jul-18 17:33N 48°31' W 122°36'1 1.1
2014-Jul-18 16:33N 48°31' W 122°35'1 1.1
2014-Jul-18 15:33N 48°31' W 122°36'1 0.1
2014-Jul-18 05:33N 48°31' W 122°34'1 0.4
2014-Jul-18 02:05N 48°31' W 122°36'2 4.2
2014-Jul-18 01:34N 48°32' W 122°34'2 1.7
2014-Jul-18 00:34N 48°34' W 122°34'4 3.7
2014-Jul-17 23:34N 48°31' W 122°36'5 5.2
2014-Jul-17 22:33N 48°35' W 122°33'5 5.2
2014-Jul-17 21:33N 48°31' W 122°36'0 0.1
2014-Jul-17 20:33N 48°31' W 122°37'0 0.1
2014-Jul-17 19:33N 48°31' W 122°36'4 4.1
2014-Jul-17 18:33N 48°34' W 122°34'4 4.1
2014-Jul-17 17:33N 48°31' W 122°36'2 1.6
2014-Jul-17 16:33N 48°31' W 122°34'2 1.6
2014-Jul-17 15:33N 48°31' W 122°37'5 0.5
2014-Jul-17 04:33N 48°35' W 122°34'5 4.9
2014-Jul-17 03:33N 48°31' W 122°36'0 0.0
2014-Jul-17 02:33N 48°31' W 122°36'0 0.0
2014-Jul-17 01:33N 48°31' W 122°36'0 0.0
2014-Jul-17 00:33N 48°31' W 122°36'5 4.9
2014-Jul-16 23:34N 48°35' W 122°34'1 1.3
2014-Jul-16 22:33N 48°36' W 122°32'6 5.8
2014-Jul-16 21:33N 48°31' W 122°36'0 0.0
2014-Jul-16 20:33N 48°31' W 122°36'3 3.4
2014-Jul-16 19:33N 48°34' W 122°34'3 3.4
2014-Jul-16 18:33N 48°31' W 122°36'1 1.2
2014-Jul-16 17:33N 48°31' W 122°35'0 0.1
2014-Jul-16 16:33N 48°31' W 122°35'1 1.1
2014-Jul-16 15:33N 48°31' W 122°36'0 0.0
2014-Jul-16 04:34N 48°31' W 122°36'3 2.8
2014-Jul-16 03:33N 48°33' W 122°34'3 2.8
2014-Jul-16 02:33N 48°31' W 122°37'0 0.0
2014-Jul-16 01:33N 48°31' W 122°36'0 0.0
2014-Jul-16 00:33N 48°31' W 122°36'0 0.0
2014-Jul-15 23:33N 48°31' W 122°36'0 0.3
2014-Jul-15 22:33N 48°31' W 122°36'0 0.3
2014-Jul-15 21:33N 48°31' W 122°36'0 0.0
2014-Jul-15 20:33N 48°31' W 122°36'0 0.0
2014-Jul-15 19:33N 48°31' W 122°36'0 0.1
2014-Jul-15 18:33N 48°31' W 122°37'5 5.1
2014-Jul-15 17:34N 48°35' W 122°33'5 5.1
2014-Jul-15 16:33N 48°31' W 122°37'0 0.0
2014-Jul-15 09:25N 48°31' W 122°36'6 6.8
2014-Jul-15 08:34N 48°36' W 122°32'6 5.9
2014-Jul-15 07:33N 48°31' W 122°36'0 0.0
2014-Jul-15 06:33N 48°31' W 122°36'0 0.0
2014-Jul-15 05:33N 48°31' W 122°36'0 0.0
2014-Jul-15 04:33N 48°31' W 122°36'0 0.0
2014-Jul-15 03:33N 48°31' W 122°36'0 0.2
2014-Jul-15 02:33N 48°31' W 122°36'0 0.3
2014-Jul-15 01:33N 48°31' W 122°37'0 0.0
2014-Jul-15 00:33N 48°31' W 122°36'0 0.4
2014-Jul-14 23:33N 48°31' W 122°36'0 0.4
2014-Jul-14 22:33N 48°31' W 122°36'0 0.1
2014-Jul-14 21:33N 48°31' W 122°36'0 0.0
2014-Jul-14 20:33N 48°31' W 122°36'0 0.3
2014-Jul-14 19:33N 48°31' W 122°36'0 0.3
2014-Jul-14 18:33N 48°31' W 122°36'0 0.0
2014-Jul-14 17:33N 48°31' W 122°36'0 0.0
2014-Jul-14 16:33N 48°31' W 122°36'0 0.1
2014-Jul-14 15:33N 48°31' W 122°36'0 0.2
2014-Jul-14 14:33N 48°31' W 122°36'0 0.1
2014-Jul-14 10:30N 48°31' W 122°36'3 2.8
2014-Jul-14 09:33N 48°33' W 122°34'  

Dump ship's entire track history